ACA325 CYXU-CYHZ
Flight info
| Callsign | ACA325 |
|---|---|
| Flight time | 1h 56m |
| Altitude | 37000 |
| Route | NUBER DCT SIKBO Q951 OLABA DCT CABCI DCT RANGY DCT BGR DCT EBONY FUNDY5 |
| Aircraft | A320/M-SDE3FGHIRWY/LB1 |
Departure
| Time | 2026-04-20 22:50 |
|---|---|
| Airport | London International Airport (CYXU) |
Arrival
| Time | 2026-04-21 00:46 |
|---|---|
| Airport | Halifax / Stanfield International Airport (CYHZ) |
| Time | Latitude | Longitude | Altitude | Speed | Heading |
|---|---|---|---|---|---|
| 2026-04-20 22:30 | 43.02932 | -81.14867 | 904 ft | 0 kts | 230° |
| 2026-04-20 22:44 | 43.02937 | -81.14859 | 903 ft | 4 kts | 229° |
| 2026-04-20 22:44 | 43.02956 | -81.14833 | 906 ft | 4 kts | 214° |
| 2026-04-20 22:44 | 43.02977 | -81.14821 | 903 ft | 4 kts | 158° |
| 2026-04-20 22:44 | 43.02984 | -81.14826 | 904 ft | 0 kts | 139° |
| 2026-04-20 22:46 | 43.02983 | -81.14825 | 904 ft | 0 kts | 139° |
| 2026-04-20 22:47 | 43.02973 | -81.14812 | 903 ft | 5 kts | 139° |
| 2026-04-20 22:47 | 43.02926 | -81.14757 | 901 ft | 12 kts | 139° |
| 2026-04-20 22:47 | 43.02862 | -81.14680 | 902 ft | 12 kts | 138° |
| 2026-04-20 22:47 | 43.02800 | -81.14605 | 902 ft | 13 kts | 139° |
| 2026-04-20 22:48 | 43.02722 | -81.14510 | 902 ft | 17 kts | 138° |
| 2026-04-20 22:48 | 43.02621 | -81.14389 | 902 ft | 22 kts | 139° |
| 2026-04-20 22:48 | 43.02502 | -81.14246 | 902 ft | 23 kts | 139° |
| 2026-04-20 22:48 | 43.02388 | -81.14110 | 902 ft | 21 kts | 139° |
| 2026-04-20 22:49 | 43.02311 | -81.13993 | 902 ft | 14 kts | 94° |
| 2026-04-20 22:49 | 43.02366 | -81.13886 | 900 ft | 15 kts | 49° |
| 2026-04-20 22:49 | 43.02450 | -81.13867 | 900 ft | 17 kts | 318° |
| 2026-04-20 22:49 | 43.02696 | -81.14161 | 902 ft | 81 kts | 319° |
| 2026-04-20 22:50 | 43.03276 | -81.14858 | 901 ft | 139 kts | 319° |
| 2026-04-20 22:50 | 43.04091 | -81.15842 | 1136 ft | 164 kts | 319° |
| 2026-04-20 22:50 | 43.04941 | -81.16867 | 1990 ft | 162 kts | 318° |
| 2026-04-20 22:50 | 43.05789 | -81.17878 | 2743 ft | 164 kts | 317° |
| 2026-04-20 22:51 | 43.06707 | -81.18972 | 3059 ft | 186 kts | 317° |
| 2026-04-20 22:51 | 43.07781 | -81.20160 | 3333 ft | 212 kts | 329° |
| 2026-04-20 22:51 | 43.09290 | -81.20620 | 3692 ft | 240 kts | 3° |
| 2026-04-20 22:51 | 43.10906 | -81.19802 | 4286 ft | 259 kts | 34° |
| 2026-04-20 22:52 | 43.12144 | -81.17969 | 5133 ft | 268 kts | 56° |
| 2026-04-20 22:52 | 43.13102 | -81.15756 | 5997 ft | 272 kts | 57° |
| 2026-04-20 22:52 | 43.14061 | -81.13501 | 6877 ft | 276 kts | 57° |
| 2026-04-20 22:52 | 43.15030 | -81.11212 | 7690 ft | 279 kts | 56° |
| 2026-04-20 22:53 | 43.16008 | -81.08898 | 8519 ft | 282 kts | 56° |
| 2026-04-20 22:53 | 43.16996 | -81.06569 | 9351 ft | 284 kts | 55° |
| 2026-04-20 22:53 | 43.17995 | -81.04220 | 10183 ft | 287 kts | 54° |
| 2026-04-20 22:53 | 43.19039 | -81.01774 | 10481 ft | 309 kts | 54° |
| 2026-04-20 22:54 | 43.20166 | -80.99137 | 10667 ft | 332 kts | 55° |
| 2026-04-20 22:54 | 43.21354 | -80.96346 | 11102 ft | 344 kts | 55° |
| 2026-04-20 22:54 | 43.22556 | -80.93488 | 11759 ft | 348 kts | 55° |
| 2026-04-20 22:54 | 43.23766 | -80.90590 | 12456 ft | 352 kts | 54° |
| 2026-04-20 22:55 | 43.24985 | -80.87666 | 13185 ft | 354 kts | 54° |
| 2026-04-20 22:55 | 43.26215 | -80.84720 | 13883 ft | 357 kts | 54° |
| 2026-04-20 22:55 | 43.27459 | -80.81751 | 14512 ft | 361 kts | 53° |
| 2026-04-20 22:55 | 43.28717 | -80.78756 | 15106 ft | 364 kts | 53° |
| 2026-04-20 22:56 | 43.29987 | -80.75732 | 15688 ft | 367 kts | 53° |
| 2026-04-20 22:56 | 43.31267 | -80.72685 | 16278 ft | 370 kts | 53° |
| 2026-04-20 22:56 | 43.32558 | -80.69607 | 16861 ft | 373 kts | 53° |
| 2026-04-20 22:56 | 43.33856 | -80.66502 | 17438 ft | 376 kts | 53° |
| 2026-04-20 22:57 | 43.35161 | -80.63368 | 18017 ft | 380 kts | 53° |
| 2026-04-20 22:57 | 43.36479 | -80.60203 | 18558 ft | 383 kts | 53° |
| 2026-04-20 22:57 | 43.37808 | -80.57009 | 19067 ft | 386 kts | 53° |
| 2026-04-20 22:57 | 43.39145 | -80.53791 | 19581 ft | 389 kts | 52° |
| 2026-04-20 22:58 | 43.40485 | -80.50560 | 20180 ft | 390 kts | 52° |
| 2026-04-20 22:58 | 43.41830 | -80.47312 | 20722 ft | 392 kts | 52° |
| 2026-04-20 22:58 | 43.43181 | -80.44047 | 21244 ft | 394 kts | 52° |
| 2026-04-20 22:58 | 43.44543 | -80.40758 | 21722 ft | 397 kts | 52° |
| 2026-04-20 22:59 | 43.45784 | -80.37311 | 22179 ft | 409 kts | 60° |
| 2026-04-20 22:59 | 43.46624 | -80.33517 | 22633 ft | 418 kts | 67° |
| 2026-04-20 22:59 | 43.47370 | -80.29635 | 23079 ft | 421 kts | 67° |
| 2026-04-20 22:59 | 43.48128 | -80.25724 | 23514 ft | 424 kts | 66° |
| 2026-04-20 23:00 | 43.48893 | -80.21789 | 23932 ft | 427 kts | 66° |
| 2026-04-20 23:00 | 43.49666 | -80.17825 | 24286 ft | 430 kts | 66° |
| 2026-04-20 23:00 | 43.50441 | -80.13840 | 24691 ft | 431 kts | 66° |
| 2026-04-20 23:00 | 43.51212 | -80.09844 | 25066 ft | 433 kts | 66° |
| 2026-04-20 23:01 | 43.51983 | -80.05822 | 25416 ft | 435 kts | 66° |
| 2026-04-20 23:01 | 43.52754 | -80.01780 | 25754 ft | 437 kts | 66° |
| 2026-04-20 23:01 | 43.53530 | -79.97719 | 26082 ft | 439 kts | 66° |
| 2026-04-20 23:01 | 43.54298 | -79.93699 | 26403 ft | 441 kts | 66° |
| 2026-04-20 23:02 | 43.55082 | -79.89598 | 26717 ft | 443 kts | 66° |
| 2026-04-20 23:02 | 43.55870 | -79.85481 | 27024 ft | 445 kts | 66° |
| 2026-04-20 23:02 | 43.56660 | -79.81347 | 27329 ft | 447 kts | 66° |
| 2026-04-20 23:02 | 43.57450 | -79.77188 | 27694 ft | 449 kts | 66° |
| 2026-04-20 23:03 | 43.58240 | -79.73015 | 28002 ft | 450 kts | 66° |
| 2026-04-20 23:03 | 43.59032 | -79.68828 | 28292 ft | 452 kts | 66° |
| 2026-04-20 23:03 | 43.59825 | -79.64626 | 28555 ft | 454 kts | 66° |
| 2026-04-20 23:03 | 43.60620 | -79.60404 | 28817 ft | 456 kts | 66° |
| 2026-04-20 23:04 | 43.61418 | -79.56159 | 29071 ft | 458 kts | 66° |
| 2026-04-20 23:04 | 43.62217 | -79.51898 | 29325 ft | 460 kts | 66° |
| 2026-04-20 23:04 | 43.63015 | -79.47619 | 29557 ft | 462 kts | 66° |
| 2026-04-20 23:04 | 43.63813 | -79.43321 | 29785 ft | 463 kts | 66° |
| 2026-04-20 23:05 | 43.64610 | -79.39008 | 30083 ft | 464 kts | 66° |
| 2026-04-20 23:05 | 43.65403 | -79.34697 | 30386 ft | 462 kts | 65° |
| 2026-04-20 23:05 | 43.66257 | -79.30434 | 30662 ft | 459 kts | 63° |
| 2026-04-20 23:05 | 43.67198 | -79.26235 | 30917 ft | 456 kts | 62° |
| 2026-04-20 23:06 | 43.68194 | -79.22080 | 31152 ft | 455 kts | 61° |
| 2026-04-20 23:06 | 43.69209 | -79.17943 | 31390 ft | 455 kts | 61° |
| 2026-04-20 23:06 | 43.70217 | -79.13797 | 31630 ft | 455 kts | 62° |
| 2026-04-20 23:06 | 43.71204 | -79.09631 | 31883 ft | 456 kts | 62° |
| 2026-04-20 23:07 | 43.72169 | -79.05454 | 32150 ft | 457 kts | 63° |
| 2026-04-20 23:07 | 43.73118 | -79.01267 | 32417 ft | 456 kts | 63° |
| 2026-04-20 23:07 | 43.74058 | -78.97085 | 32675 ft | 455 kts | 63° |
| 2026-04-20 23:07 | 43.74997 | -78.92902 | 32914 ft | 455 kts | 63° |
| 2026-04-20 23:08 | 43.75939 | -78.88723 | 33145 ft | 455 kts | 63° |
| 2026-04-20 23:08 | 43.76883 | -78.84542 | 33379 ft | 455 kts | 63° |
| 2026-04-20 23:08 | 43.77828 | -78.80357 | 33610 ft | 456 kts | 64° |
| 2026-04-20 23:08 | 43.78772 | -78.76170 | 33846 ft | 456 kts | 64° |
| 2026-04-20 23:09 | 43.79717 | -78.71980 | 34094 ft | 456 kts | 64° |
| 2026-04-20 23:09 | 43.80649 | -78.67850 | 34361 ft | 456 kts | 64° |
| 2026-04-20 23:09 | 43.81595 | -78.63656 | 34540 ft | 457 kts | 64° |
| 2026-04-20 23:09 | 43.82538 | -78.59451 | 34716 ft | 458 kts | 64° |
| 2026-04-20 23:10 | 43.83480 | -78.55241 | 34894 ft | 458 kts | 64° |
| 2026-04-20 23:10 | 43.84420 | -78.51021 | 35074 ft | 459 kts | 65° |
| 2026-04-20 23:10 | 43.85356 | -78.46792 | 35243 ft | 459 kts | 65° |
| 2026-04-20 23:10 | 43.86289 | -78.42560 | 35414 ft | 460 kts | 65° |
| 2026-04-20 23:11 | 43.87223 | -78.38322 | 35571 ft | 460 kts | 65° |
| 2026-04-20 23:11 | 43.88159 | -78.34081 | 35728 ft | 460 kts | 65° |
| 2026-04-20 23:11 | 43.89099 | -78.29840 | 35896 ft | 460 kts | 65° |
| 2026-04-20 23:11 | 43.90038 | -78.25597 | 36042 ft | 461 kts | 65° |
| 2026-04-20 23:12 | 43.90975 | -78.21342 | 36186 ft | 461 kts | 65° |
| 2026-04-20 23:12 | 43.91910 | -78.17087 | 36331 ft | 462 kts | 66° |
| 2026-04-20 23:12 | 43.92847 | -78.12824 | 36470 ft | 462 kts | 66° |
| 2026-04-20 23:12 | 43.93777 | -78.08560 | 36610 ft | 462 kts | 66° |
| 2026-04-20 23:13 | 43.94845 | -78.04381 | 36739 ft | 458 kts | 61° |
| 2026-04-20 23:13 | 43.96023 | -78.00280 | 36875 ft | 457 kts | 60° |
| 2026-04-20 23:13 | 43.97235 | -77.96195 | 37002 ft | 457 kts | 60° |
| 2026-04-20 23:13 | 43.98463 | -77.92123 | 37160 ft | 457 kts | 60° |
| 2026-04-20 23:14 | 43.99691 | -77.88051 | 37309 ft | 458 kts | 60° |
| 2026-04-20 23:14 | 44.00917 | -77.83962 | 37350 ft | 460 kts | 61° |
| 2026-04-20 23:14 | 44.03361 | -77.75714 | 37334 ft | 462 kts | 61° |
| 2026-04-20 23:15 | 44.05785 | -77.67431 | 37333 ft | 463 kts | 61° |
| 2026-04-20 23:15 | 44.08203 | -77.59140 | 37362 ft | 463 kts | 61° |
| 2026-04-20 23:16 | 44.10628 | -77.50823 | 37326 ft | 465 kts | 61° |
| 2026-04-20 23:16 | 44.13059 | -77.42482 | 37335 ft | 465 kts | 61° |
| 2026-04-20 23:17 | 44.15487 | -77.34124 | 37342 ft | 466 kts | 62° |
| 2026-04-20 23:17 | 44.17904 | -77.25747 | 37347 ft | 466 kts | 62° |
| 2026-04-20 23:18 | 44.20314 | -77.17362 | 37363 ft | 467 kts | 62° |
| 2026-04-20 23:18 | 44.22722 | -77.08948 | 37350 ft | 467 kts | 62° |
| 2026-04-20 23:19 | 44.25125 | -77.00522 | 37354 ft | 468 kts | 62° |
| 2026-04-20 23:19 | 44.27533 | -76.92090 | 37351 ft | 468 kts | 62° |
| 2026-04-20 23:20 | 44.29919 | -76.83698 | 37365 ft | 468 kts | 63° |
| 2026-04-20 23:20 | 44.32309 | -76.75235 | 37350 ft | 469 kts | 63° |
| 2026-04-20 23:21 | 44.34697 | -76.66757 | 37341 ft | 469 kts | 63° |
| 2026-04-20 23:21 | 44.37083 | -76.58263 | 37338 ft | 469 kts | 63° |
| 2026-04-20 23:22 | 44.39464 | -76.49767 | 37352 ft | 470 kts | 63° |
| 2026-04-20 23:22 | 44.41457 | -76.42640 | 37346 ft | 470 kts | 63° |
| 2026-04-20 23:23 | 44.43825 | -76.34118 | 37348 ft | 470 kts | 64° |
| 2026-04-20 23:23 | 44.46190 | -76.25580 | 37339 ft | 471 kts | 64° |
| 2026-04-20 23:24 | 44.47997 | -76.16741 | 37321 ft | 479 kts | 78° |
| 2026-04-20 23:24 | 44.48876 | -76.07493 | 37321 ft | 479 kts | 78° |
| 2026-04-20 23:25 | 44.49768 | -75.98239 | 37319 ft | 480 kts | 78° |
| 2026-04-20 23:25 | 44.50639 | -75.89034 | 37319 ft | 480 kts | 79° |
| 2026-04-20 23:26 | 44.51512 | -75.79759 | 37324 ft | 480 kts | 79° |
| 2026-04-20 23:26 | 44.52373 | -75.70471 | 37317 ft | 481 kts | 79° |
| 2026-04-20 23:27 | 44.53228 | -75.61170 | 37314 ft | 481 kts | 79° |
| 2026-04-20 23:27 | 44.54080 | -75.51862 | 37319 ft | 482 kts | 79° |
| 2026-04-20 23:28 | 44.54936 | -75.42542 | 37310 ft | 482 kts | 79° |
| 2026-04-20 23:28 | 44.55784 | -75.33204 | 37309 ft | 483 kts | 80° |
| 2026-04-20 23:29 | 44.56608 | -75.23859 | 37311 ft | 483 kts | 80° |
| 2026-04-20 23:29 | 44.57427 | -75.14505 | 37321 ft | 483 kts | 80° |
| 2026-04-20 23:30 | 44.58245 | -75.05157 | 37305 ft | 484 kts | 80° |
| 2026-04-20 23:30 | 44.59051 | -74.95780 | 37313 ft | 484 kts | 81° |
| 2026-04-20 23:31 | 44.59848 | -74.86406 | 37319 ft | 484 kts | 81° |
| 2026-04-20 23:31 | 44.60641 | -74.77020 | 37319 ft | 484 kts | 81° |
| 2026-04-20 23:32 | 44.61432 | -74.67629 | 37312 ft | 485 kts | 81° |
| 2026-04-20 23:32 | 44.62218 | -74.58224 | 37307 ft | 485 kts | 81° |
| 2026-04-20 23:33 | 44.62991 | -74.48808 | 37307 ft | 486 kts | 81° |
| 2026-04-20 23:33 | 44.63754 | -74.39383 | 37291 ft | 486 kts | 82° |
| 2026-04-20 23:34 | 44.64505 | -74.30023 | 37289 ft | 486 kts | 82° |
| 2026-04-20 23:34 | 44.65258 | -74.20539 | 37279 ft | 486 kts | 82° |
| 2026-04-20 23:35 | 44.66379 | -74.06396 | 37294 ft | 486 kts | 82° |
| 2026-04-20 23:36 | 44.67106 | -73.97029 | 37312 ft | 486 kts | 82° |
| 2026-04-20 23:36 | 44.67822 | -73.87599 | 37305 ft | 485 kts | 82° |
| 2026-04-20 23:37 | 44.68533 | -73.78168 | 37303 ft | 485 kts | 83° |
| 2026-04-20 23:37 | 44.69241 | -73.68734 | 37306 ft | 485 kts | 83° |
| 2026-04-20 23:38 | 44.69944 | -73.59294 | 37307 ft | 486 kts | 83° |
| 2026-04-20 23:38 | 44.70638 | -73.49853 | 37302 ft | 486 kts | 83° |
| 2026-04-20 23:39 | 44.71318 | -73.40409 | 37297 ft | 486 kts | 83° |
| 2026-04-20 23:39 | 44.71997 | -73.30967 | 37306 ft | 486 kts | 83° |
| 2026-04-20 23:40 | 44.72669 | -73.21521 | 37317 ft | 485 kts | 83° |
| 2026-04-20 23:40 | 44.73333 | -73.12073 | 37315 ft | 485 kts | 83° |
| 2026-04-20 23:41 | 44.73983 | -73.02689 | 37313 ft | 485 kts | 84° |
| 2026-04-20 23:41 | 44.74622 | -72.93243 | 37313 ft | 485 kts | 84° |
| 2026-04-20 23:42 | 44.75263 | -72.83789 | 37305 ft | 485 kts | 84° |
| 2026-04-20 23:42 | 44.75889 | -72.74339 | 37298 ft | 485 kts | 84° |
| 2026-04-20 23:43 | 44.76509 | -72.64876 | 37282 ft | 486 kts | 85° |
| 2026-04-20 23:43 | 44.77126 | -72.55412 | 37281 ft | 486 kts | 85° |
| 2026-04-20 23:44 | 44.77730 | -72.45938 | 37288 ft | 486 kts | 85° |
| 2026-04-20 23:44 | 44.78333 | -72.36452 | 37288 ft | 487 kts | 85° |
| 2026-04-20 23:45 | 44.78935 | -72.26960 | 37276 ft | 487 kts | 85° |
| 2026-04-20 23:45 | 44.79517 | -72.17470 | 37279 ft | 487 kts | 86° |
| 2026-04-20 23:46 | 44.80090 | -72.07971 | 37285 ft | 487 kts | 86° |
| 2026-04-20 23:46 | 44.80652 | -71.98536 | 37288 ft | 487 kts | 86° |
| 2026-04-20 23:47 | 44.81215 | -71.88966 | 37289 ft | 487 kts | 86° |
| 2026-04-20 23:47 | 44.81759 | -71.79528 | 37279 ft | 487 kts | 86° |
| 2026-04-20 23:48 | 44.82199 | -71.70012 | 37281 ft | 486 kts | 92° |
| 2026-04-20 23:48 | 44.82069 | -71.60499 | 37276 ft | 486 kts | 92° |
| 2026-04-20 23:49 | 44.81927 | -71.50978 | 37289 ft | 486 kts | 92° |
| 2026-04-20 23:49 | 44.81768 | -71.41462 | 37275 ft | 486 kts | 93° |
| 2026-04-20 23:50 | 44.81608 | -71.31930 | 37278 ft | 487 kts | 93° |
| 2026-04-20 23:50 | 44.81446 | -71.22398 | 37261 ft | 487 kts | 93° |
| 2026-04-20 23:51 | 44.81269 | -71.12855 | 37261 ft | 487 kts | 94° |
| 2026-04-20 23:51 | 44.81087 | -71.03312 | 37242 ft | 488 kts | 94° |
| 2026-04-20 23:52 | 44.80896 | -70.93757 | 37246 ft | 489 kts | 94° |
| 2026-04-20 23:52 | 44.80697 | -70.84191 | 37253 ft | 489 kts | 94° |
| 2026-04-20 23:53 | 44.80490 | -70.74613 | 37260 ft | 489 kts | 94° |
| 2026-04-20 23:53 | 44.80321 | -70.65020 | 37249 ft | 490 kts | 92° |
| 2026-04-20 23:54 | 44.80536 | -70.55405 | 37250 ft | 492 kts | 89° |
| 2026-04-20 23:54 | 44.80939 | -70.45770 | 37250 ft | 493 kts | 89° |
| 2026-04-20 23:55 | 44.81274 | -70.36117 | 37252 ft | 493 kts | 90° |
| 2026-04-20 23:55 | 44.81503 | -70.26457 | 37255 ft | 494 kts | 90° |
| 2026-04-20 23:56 | 44.81719 | -70.16791 | 37256 ft | 494 kts | 90° |
| 2026-04-20 23:56 | 44.81956 | -70.07125 | 37262 ft | 494 kts | 90° |
| 2026-04-20 23:57 | 44.82186 | -69.97454 | 37257 ft | 494 kts | 90° |
| 2026-04-20 23:57 | 44.82399 | -69.87781 | 37255 ft | 494 kts | 90° |
| 2026-04-20 23:58 | 44.82610 | -69.78109 | 37234 ft | 494 kts | 91° |
| 2026-04-20 23:58 | 44.82816 | -69.68444 | 37243 ft | 494 kts | 91° |
| 2026-04-20 23:59 | 44.83005 | -69.58769 | 37248 ft | 494 kts | 91° |
| 2026-04-20 23:59 | 44.83189 | -69.49100 | 37254 ft | 494 kts | 91° |
| 2026-04-21 00:00 | 44.83372 | -69.39432 | 37241 ft | 493 kts | 91° |
| 2026-04-21 00:00 | 44.83541 | -69.29778 | 37258 ft | 493 kts | 91° |
| 2026-04-21 00:01 | 44.83699 | -69.20126 | 37262 ft | 493 kts | 91° |
| 2026-04-21 00:01 | 44.83855 | -69.10478 | 37276 ft | 492 kts | 91° |
| 2026-04-21 00:02 | 44.83994 | -69.00838 | 37253 ft | 492 kts | 92° |
| 2026-04-21 00:02 | 44.84124 | -68.91216 | 37286 ft | 491 kts | 92° |
| 2026-04-21 00:03 | 44.84317 | -68.81612 | 37291 ft | 491 kts | 90° |
| 2026-04-21 00:03 | 44.84746 | -68.72083 | 37292 ft | 491 kts | 89° |
| 2026-04-21 00:04 | 44.85222 | -68.62499 | 37288 ft | 490 kts | 89° |
| 2026-04-21 00:04 | 44.85632 | -68.52926 | 37267 ft | 489 kts | 90° |
| 2026-04-21 00:05 | 44.85995 | -68.43368 | 37262 ft | 488 kts | 91° |
| 2026-04-21 00:05 | 44.86352 | -68.33758 | 37260 ft | 487 kts | 91° |
| 2026-04-21 00:06 | 44.86703 | -68.24286 | 37265 ft | 487 kts | 91° |
| 2026-04-21 00:06 | 44.87058 | -68.14754 | 37228 ft | 487 kts | 91° |
| 2026-04-21 00:07 | 44.87406 | -68.05218 | 37226 ft | 487 kts | 91° |
| 2026-04-21 00:07 | 44.87742 | -67.95673 | 37228 ft | 488 kts | 91° |
| 2026-04-21 00:08 | 44.88071 | -67.86118 | 37232 ft | 488 kts | 91° |
| 2026-04-21 00:08 | 44.88391 | -67.76556 | 37234 ft | 488 kts | 92° |
| 2026-04-21 00:09 | 44.88700 | -67.66989 | 37205 ft | 489 kts | 92° |
| 2026-04-21 00:09 | 44.89004 | -67.57412 | 37211 ft | 489 kts | 92° |
| 2026-04-21 00:10 | 44.89255 | -67.49437 | 37220 ft | 490 kts | 92° |
| 2026-04-21 00:10 | 44.89549 | -67.39780 | 37228 ft | 490 kts | 92° |
| 2026-04-21 00:11 | 44.89833 | -67.30179 | 37209 ft | 490 kts | 93° |
| 2026-04-21 00:11 | 44.90109 | -67.20641 | 37218 ft | 490 kts | 93° |
| 2026-04-21 00:12 | 44.90330 | -67.10966 | 37230 ft | 490 kts | 95° |
| 2026-04-21 00:12 | 44.90321 | -67.01378 | 37236 ft | 488 kts | 96° |
| 2026-04-21 00:13 | 44.90226 | -66.91860 | 37195 ft | 489 kts | 97° |
| 2026-04-21 00:13 | 44.90167 | -66.82269 | 37198 ft | 489 kts | 96° |
| 2026-04-21 00:14 | 44.90149 | -66.72608 | 37214 ft | 490 kts | 96° |
| 2026-04-21 00:14 | 44.90135 | -66.63063 | 37220 ft | 490 kts | 96° |
| 2026-04-21 00:15 | 44.90092 | -66.53456 | 37227 ft | 490 kts | 96° |
| 2026-04-21 00:15 | 44.90030 | -66.43854 | 37184 ft | 490 kts | 97° |
| 2026-04-21 00:16 | 44.89962 | -66.34255 | 37212 ft | 489 kts | 97° |
| 2026-04-21 00:16 | 44.89884 | -66.24659 | 37223 ft | 489 kts | 97° |
| 2026-04-21 00:17 | 44.89804 | -66.15063 | 37228 ft | 489 kts | 97° |
| 2026-04-21 00:17 | 44.89713 | -66.05478 | 37230 ft | 489 kts | 97° |
| 2026-04-21 00:18 | 44.89616 | -65.95898 | 36932 ft | 487 kts | 97° |
| 2026-04-21 00:18 | 44.89569 | -65.91130 | 36265 ft | 486 kts | 97° |
| 2026-04-21 00:18 | 44.89517 | -65.86359 | 35571 ft | 486 kts | 98° |
| 2026-04-21 00:18 | 44.89460 | -65.81590 | 34879 ft | 487 kts | 98° |
| 2026-04-21 00:19 | 44.89399 | -65.76815 | 34185 ft | 487 kts | 99° |
| 2026-04-21 00:19 | 44.89336 | -65.72035 | 33347 ft | 488 kts | 99° |
| 2026-04-21 00:19 | 44.89273 | -65.67238 | 32428 ft | 490 kts | 100° |
| 2026-04-21 00:19 | 44.89211 | -65.62445 | 31818 ft | 487 kts | 101° |
| 2026-04-21 00:20 | 44.89153 | -65.57698 | 31251 ft | 482 kts | 101° |
| 2026-04-21 00:20 | 44.89094 | -65.52988 | 30699 ft | 478 kts | 102° |
| 2026-04-21 00:20 | 44.89035 | -65.48324 | 30130 ft | 474 kts | 102° |
| 2026-04-21 00:20 | 44.88971 | -65.43705 | 29515 ft | 469 kts | 102° |
| 2026-04-21 00:21 | 44.88903 | -65.39137 | 28839 ft | 463 kts | 102° |
| 2026-04-21 00:21 | 44.88834 | -65.34624 | 28176 ft | 458 kts | 102° |
| 2026-04-21 00:21 | 44.88763 | -65.30160 | 27533 ft | 453 kts | 102° |
| 2026-04-21 00:21 | 44.88687 | -65.25747 | 26857 ft | 448 kts | 103° |
| 2026-04-21 00:22 | 44.88610 | -65.21379 | 26290 ft | 443 kts | 103° |
| 2026-04-21 00:22 | 44.88533 | -65.17063 | 25705 ft | 438 kts | 103° |
| 2026-04-21 00:22 | 44.88453 | -65.12789 | 25125 ft | 434 kts | 103° |
| 2026-04-21 00:22 | 44.88373 | -65.08550 | 24550 ft | 431 kts | 103° |
| 2026-04-21 00:23 | 44.88295 | -65.04344 | 23994 ft | 428 kts | 102° |
| 2026-04-21 00:23 | 44.88218 | -65.00171 | 23390 ft | 424 kts | 102° |
| 2026-04-21 00:23 | 44.88138 | -64.96032 | 22791 ft | 420 kts | 102° |
| 2026-04-21 00:23 | 44.88063 | -64.91967 | 22554 ft | 408 kts | 102° |
| 2026-04-21 00:24 | 44.87999 | -64.88045 | 22414 ft | 393 kts | 102° |
| 2026-04-21 00:24 | 44.87934 | -64.84264 | 22135 ft | 381 kts | 103° |
| 2026-04-21 00:24 | 44.87859 | -64.80559 | 21712 ft | 376 kts | 103° |
| 2026-04-21 00:24 | 44.87776 | -64.76886 | 21271 ft | 373 kts | 103° |
| 2026-04-21 00:25 | 44.87688 | -64.73242 | 20870 ft | 371 kts | 103° |
| 2026-04-21 00:25 | 44.87601 | -64.69619 | 20479 ft | 369 kts | 103° |
| 2026-04-21 00:25 | 44.87517 | -64.66016 | 20067 ft | 367 kts | 102° |
| 2026-04-21 00:25 | 44.87435 | -64.62482 | 19689 ft | 365 kts | 102° |
| 2026-04-21 00:26 | 44.87353 | -64.58917 | 19319 ft | 363 kts | 102° |
| 2026-04-21 00:26 | 44.87272 | -64.55367 | 18947 ft | 361 kts | 102° |
| 2026-04-21 00:26 | 44.87193 | -64.51838 | 18580 ft | 359 kts | 102° |
| 2026-04-21 00:26 | 44.87114 | -64.48328 | 18130 ft | 357 kts | 101° |
| 2026-04-21 00:27 | 44.87033 | -64.44844 | 17697 ft | 354 kts | 101° |
| 2026-04-21 00:27 | 44.86950 | -64.41394 | 17212 ft | 351 kts | 102° |
| 2026-04-21 00:27 | 44.86866 | -64.37965 | 16789 ft | 348 kts | 101° |
| 2026-04-21 00:27 | 44.86751 | -64.34526 | 16108 ft | 355 kts | 101° |
| 2026-04-21 00:28 | 44.86592 | -64.31038 | 15539 ft | 358 kts | 101° |
| 2026-04-21 00:28 | 44.86395 | -64.27518 | 14989 ft | 362 kts | 101° |
| 2026-04-21 00:28 | 44.86163 | -64.23988 | 14550 ft | 361 kts | 101° |
| 2026-04-21 00:28 | 44.86163 | -64.20434 | 14047 ft | 369 kts | 86° |
| 2026-04-21 00:29 | 44.86555 | -64.16820 | 13327 ft | 375 kts | 84° |
| 2026-04-21 00:29 | 44.86967 | -64.13199 | 12833 ft | 373 kts | 84° |
| 2026-04-21 00:29 | 44.87364 | -64.09605 | 12370 ft | 369 kts | 84° |
| 2026-04-21 00:29 | 44.87742 | -64.06039 | 12032 ft | 366 kts | 84° |
| 2026-04-21 00:30 | 44.88104 | -64.02507 | 11603 ft | 362 kts | 84° |
| 2026-04-21 00:30 | 44.88452 | -63.99012 | 11181 ft | 357 kts | 84° |
| 2026-04-21 00:30 | 44.88788 | -63.95570 | 10813 ft | 351 kts | 84° |
| 2026-04-21 00:30 | 44.89102 | -63.92187 | 10527 ft | 343 kts | 84° |
| 2026-04-21 00:31 | 44.89390 | -63.88949 | 10406 ft | 331 kts | 84° |
| 2026-04-21 00:31 | 44.89665 | -63.85782 | 10277 ft | 320 kts | 84° |
| 2026-04-21 00:31 | 44.89925 | -63.82714 | 10112 ft | 311 kts | 84° |
| 2026-04-21 00:31 | 44.90173 | -63.79707 | 9789 ft | 307 kts | 84° |
| 2026-04-21 00:32 | 44.90417 | -63.76733 | 9433 ft | 304 kts | 84° |
| 2026-04-21 00:32 | 44.90661 | -63.73774 | 9061 ft | 302 kts | 84° |
| 2026-04-21 00:32 | 44.90902 | -63.70839 | 9014 ft | 302 kts | 84° |
| 2026-04-21 00:32 | 44.91144 | -63.67891 | 9019 ft | 303 kts | 84° |
| 2026-04-21 00:33 | 44.91386 | -63.64938 | 9021 ft | 303 kts | 84° |
| 2026-04-21 00:33 | 44.91626 | -63.61997 | 9018 ft | 300 kts | 84° |
| 2026-04-21 00:33 | 44.91865 | -63.59081 | 9020 ft | 299 kts | 84° |
| 2026-04-21 00:33 | 44.92103 | -63.56178 | 8816 ft | 296 kts | 84° |
| 2026-04-21 00:34 | 44.92338 | -63.53298 | 8370 ft | 296 kts | 84° |
| 2026-04-21 00:34 | 44.92570 | -63.50422 | 7976 ft | 294 kts | 84° |
| 2026-04-21 00:34 | 44.92797 | -63.47567 | 7609 ft | 291 kts | 84° |
| 2026-04-21 00:34 | 44.93018 | -63.44742 | 7246 ft | 288 kts | 84° |
| 2026-04-21 00:35 | 44.93235 | -63.41940 | 6878 ft | 286 kts | 84° |
| 2026-04-21 00:35 | 44.93447 | -63.39166 | 6514 ft | 283 kts | 84° |
| 2026-04-21 00:35 | 44.93655 | -63.36421 | 6119 ft | 280 kts | 84° |
| 2026-04-21 00:35 | 44.93862 | -63.33701 | 5791 ft | 275 kts | 84° |
| 2026-04-21 00:36 | 44.94063 | -63.31078 | 5654 ft | 263 kts | 84° |
| 2026-04-21 00:36 | 44.94256 | -63.28575 | 5519 ft | 251 kts | 82° |
| 2026-04-21 00:36 | 44.94784 | -63.26317 | 5335 ft | 239 kts | 53° |
| 2026-04-21 00:36 | 44.95933 | -63.24681 | 5021 ft | 234 kts | 36° |
| 2026-04-21 00:37 | 44.97228 | -63.23298 | 4669 ft | 233 kts | 34° |
| 2026-04-21 00:37 | 44.98531 | -63.21958 | 4339 ft | 231 kts | 33° |
| 2026-04-21 00:37 | 44.99820 | -63.20630 | 4079 ft | 227 kts | 33° |
| 2026-04-21 00:37 | 45.01093 | -63.19313 | 4017 ft | 227 kts | 33° |
| 2026-04-21 00:38 | 45.02368 | -63.17993 | 4018 ft | 218 kts | 33° |
| 2026-04-21 00:38 | 45.03583 | -63.16864 | 4010 ft | 201 kts | 16° |
| 2026-04-21 00:38 | 45.04899 | -63.16753 | 4014 ft | 191 kts | 339° |
| 2026-04-21 00:38 | 45.05983 | -63.17800 | 4019 ft | 188 kts | 310° |
| 2026-04-21 00:39 | 45.06780 | -63.19230 | 4015 ft | 188 kts | 304° |
| 2026-04-21 00:39 | 45.07539 | -63.20737 | 4008 ft | 187 kts | 304° |
| 2026-04-21 00:39 | 45.08280 | -63.22239 | 3757 ft | 186 kts | 304° |
| 2026-04-21 00:39 | 45.08822 | -63.23873 | 3494 ft | 184 kts | 276° |
| 2026-04-21 00:40 | 45.08561 | -63.25628 | 3210 ft | 187 kts | 245° |
| 2026-04-21 00:40 | 45.07902 | -63.27205 | 3038 ft | 183 kts | 240° |
| 2026-04-21 00:40 | 45.07213 | -63.28662 | 3007 ft | 175 kts | 239° |
| 2026-04-21 00:40 | 45.06531 | -63.30071 | 3009 ft | 173 kts | 239° |
| 2026-04-21 00:41 | 45.05853 | -63.31465 | 3016 ft | 172 kts | 239° |
| 2026-04-21 00:41 | 45.05176 | -63.32854 | 3016 ft | 171 kts | 238° |
| 2026-04-21 00:41 | 45.04500 | -63.34241 | 3015 ft | 171 kts | 238° |
| 2026-04-21 00:41 | 45.03758 | -63.35559 | 3013 ft | 174 kts | 223° |
| 2026-04-21 00:42 | 45.02794 | -63.36603 | 3014 ft | 175 kts | 219° |
| 2026-04-21 00:42 | 45.01806 | -63.37609 | 3017 ft | 175 kts | 218° |
| 2026-04-21 00:42 | 45.00816 | -63.38600 | 3016 ft | 174 kts | 218° |
| 2026-04-21 00:42 | 44.99827 | -63.39585 | 3023 ft | 174 kts | 218° |
| 2026-04-21 00:43 | 44.98836 | -63.40571 | 2917 ft | 174 kts | 218° |
| 2026-04-21 00:43 | 44.97845 | -63.41554 | 2718 ft | 173 kts | 218° |
| 2026-04-21 00:43 | 44.96866 | -63.42526 | 2495 ft | 171 kts | 218° |
| 2026-04-21 00:43 | 44.95896 | -63.43488 | 2259 ft | 171 kts | 218° |
| 2026-04-21 00:44 | 44.94924 | -63.44452 | 2024 ft | 171 kts | 219° |
| 2026-04-21 00:44 | 44.93967 | -63.45399 | 1828 ft | 166 kts | 219° |
| 2026-04-21 00:44 | 44.93034 | -63.46323 | 1575 ft | 159 kts | 219° |
| 2026-04-21 00:45 | 44.91308 | -63.48032 | 1100 ft | 146 kts | 217° |
| 2026-04-21 00:45 | 44.90485 | -63.48846 | 898 ft | 144 kts | 217° |
| 2026-04-21 00:45 | 44.89667 | -63.49657 | 701 ft | 144 kts | 217° |
| 2026-04-21 00:45 | 44.88849 | -63.50472 | 517 ft | 144 kts | 216° |
| 2026-04-21 00:46 | 44.88085 | -63.51227 | 454 ft | 115 kts | 214° |
| 2026-04-21 00:46 | 44.87558 | -63.51741 | 459 ft | 62 kts | 216° |
| 2026-04-21 00:46 | 44.87334 | -63.51944 | 456 ft | 33 kts | 230° |
| 2026-04-21 00:46 | 44.87149 | -63.52149 | 460 ft | 34 kts | 215° |
| 2026-04-21 00:47 | 44.86953 | -63.52344 | 461 ft | 21 kts | 216° |
| 2026-04-21 00:47 | 44.86947 | -63.52517 | 461 ft | 20 kts | 321° |
| 2026-04-21 00:47 | 44.87081 | -63.52546 | 461 ft | 16 kts | 29° |
| 2026-04-21 00:47 | 44.87172 | -63.52458 | 461 ft | 17 kts | 35° |
| 2026-04-21 00:48 | 44.87275 | -63.52356 | 461 ft | 19 kts | 35° |
| 2026-04-21 00:48 | 44.87323 | -63.52310 | 461 ft | 20 kts | 34° |